Amsterdam, New York
Current Conditions -  °F | °C
As of 3:15 AM on Sunday 26 Oct 2014 (Local Time) from KNY0 Reporting Station
Clear Clear  
Wind Chill: 40°   Ceiling: Unl
Heat Index: 45°   Visibility: 10mi
Dew Point: 43°   Wind: 10mph
Humidity: 92%   Direction: 260°W
Pressure: 29.5"   Gusts: NA
Location:  42.94°N, 74.19°W
Report Text: KNY0 260715Z AUTO 26009KT 10SM CLR 07/06 A2950 RMK AO2 T00720060
Loading
Personal Weather Stations






























Interactive Weather Map
Tropical Storm Tracking
New forecast layout! Learn more

10-Day Weather Forecast

Advertisements
Track Severe Weather on mobile